Terminal Aerodrome Forecast
Issued by NWS Wilmington, OH

Home | Current Version | Previous Version | Text Only | Print | Product List | Glossary On
Versions: 1 2 3 4 5 6 7 8 9 10 11 12 13 14 15 16 17 18 19 20 21 22 23 24 25 26 27 28 29 30 31
925
FTUS41 KILN 241136
TAFILN
TAF
KILN 241136Z 2412/2512 06008KT P6SM -RA OVC015
      TEMPO 2412/2416 3SM -RA OVC008
     FM241900 09010KT P6SM VCSH OVC022
     FM250400 17012KT 4SM -SHRA VCTS OVC030CB
     FM250800 21016G26KT 5SM -SHRA VCTS OVC030CB=

USA.gov is the U.S. government's official web portal to all federal, state and local government web resources and services.